NV99 weather

CLOSED Maverick Heliport
Las Vegas, Nevada, United States

Public forecast

Using degrees Fahrenheit for public forecast. Weather courtesy of forecast.io.

METAR (pilot weather report)

Closest report is Henderson Executive Airport, 3.3 nm (6.1 km) NE. Retrieved 2019/03/26 15:56 UTC (9 minutes ago):

KHND 261556Z 00000KT 10SM CLR 17/M04 A3004 RMK AO2 SLP164 T01671039 $

TAF (pilot weather forecast)

Closest forecast is Henderson Executive Airport, 3.3 nm (6.1 km) NE. Retrieved 2019/03/26 12:39 UTC (3 hours ago):

TAF KHND 261136Z 2612/2712 19010KT P6SM BKN250 FM262200 21012G20KT P6SM BKN250 FM270230 21010KT P6SM SCT250